Airfield :
LOGIN :

Register | Disclaimer

   EN    FR    IT 

 










Legend :    VFR   Marginal VFR   IFR   Intensive IFR   Very Intensive IFR
Visi :
Ceiling :
>= 8 km
>= 3000ft
5 to 8 km
1000 to 3000 ft
1500m to 5 km
500 to 1000 ft
800 to 1500m
200 to 500 ft
< 800m
< 200 ft
Symbols :   Thunderstorms  Fog  Heavy snow  Heavy precipitations  Wind > 20 kt
SIGMETs :     Misc.  Thunderstorms  Icing  Turbulence  Mountain Waves  Volcanic Ashes







- Airport Elevation : 147 ft
- IATA code : DUS


EDDL - Düsseldorf Int.

CURRENT METAR :
  • 261050Z 22011KT 180V240 CAVOK 19/11 Q1014 NOSIG

EXPIRED METARs :
  • 261020Z 23009KT 9999 FEW025 19/11 Q1014 NOSIG
  • 260950Z 23010KT 9999 FEW020 18/11 Q1014 NOSIG
  • 260920Z 23008KT 180V250 CAVOK 18/11 Q1014 NOSIG
  • 260850Z 22010KT CAVOK 18/11 Q1015 NOSIG
  • 260820Z 21008KT 180V240 CAVOK 17/11 Q1015 NOSIG

TAF TAF EDDL
Valid from the 26 at 06:00 until the 27 at 12:00 UTC


260500Z 2606/2712 20007KT CAVOK
BECMG 2608/2611 23013KT
TEMPO 2612/2616 24015G25KT
BECMG 2701/2704 25008KT BKN012
TEMPO 2704/2706 BKN008
BECMG 2706/2709 SCT030
No reported NOTAMs for that airfield.



MET'MAP, your aeronautical weather chart ! - Copyright ORBIFLY December 2007 - Disclaimer

ORBIFLY MET'MAP TEAM :

Programming & Development : Alexandra Zaïnal
Concept & Development : Baudouin d'Aumeries
Co-Development & Prog : Marc-Olivier Méhu
Technical & hardware support : Manuel Goepfert

Contact : metmap@orbifly.com




SOURCES & CREDITS :

   NOAA